Latest Coastal Weather Observations for Rundle Island

IDQ60701

Issued at 1:02 pm EST Sunday 22 October 2017 (issued every 10 minutes, with the page automatically refreshed every 10 minutes)

About coastal observations | Map of coastal stations | Coastal observations for QLD | Marine services | Other Formats
Station Details ID: 039322 Name: RUNDLE ISLAND Lat: -23.53 Lon: 151.28 Height: 19.8 m
Data from the previous 72 hours. | See also: Recent months at Rundle Island
Date/Time
EST
Temp
°C
Wind Pressure Rain since
9am
mm
Weather Cloud Vis
km
Sea
Height
m
Swell
Dir  Spd
kts
Gust
kts
hPa Trend Height
m
Period
s
Dir
22/01:00pm 22.8 E 7 9 1011.0 - - - - - - - - -
22/12:30pm 22.4 E 9 10 1011.3 - - - - - - - - -
22/12:00pm 22.6 ESE 8 9 1011.7 - - - - - - - - -
22/11:30am 22.4 ESE 7 8 1012.2 - - - - - - - - -
22/11:00am 22.5 ESE 8 9 1012.5 - - - - - - - - -
22/10:30am 21.4 SE 6 9 1012.8 - - - - - - - - -
22/10:00am 21.8 SSE 6 8 1012.8 - - - - - - - - -
22/09:30am 21.0 SSE 7 9 1013.0 - - - - - - - - -
22/09:00am 20.9 SSE 8 10 1013.0 - - - - - - - - -
22/08:30am 20.1 SSE 8 10 1013.0 - - - - - - - - -
22/08:00am 20.6 SSE 9 10 1012.9 - - - - - - - - -
22/07:30am 19.6 S 11 14 1012.8 - - - - - - - - -
22/07:00am 19.6 SSE 12 15 1012.5 - - - - - - - - -
22/06:30am 19.5 SSE 13 16 1012.3 - - - - - - - - -
22/06:00am 19.5 SSE 13 16 1012.0 - - - - - - - - -
22/05:30am 19.1 SSE 14 17 1011.7 - - - - - - - - -
22/05:00am 19.4 SSE 13 17 1011.4 - - - - - - - - -
22/04:30am 19.6 S 13 15 1011.3 - - - - - - - - -
22/04:00am 19.8 S 13 15 1011.1 - - - - - - - - -
22/03:30am 20.3 S 14 16 1011.0 - - - - - - - - -
22/03:00am 20.3 SSE 15 17 1010.9 - - - - - - - - -
22/02:30am 20.6 SSE 15 17 1011.1 - - - - - - - - -
22/02:00am 20.7 SSE 16 18 1011.3 - - - - - - - - -
22/01:30am 20.6 SSE 16 18 1011.4 - - - - - - - - -
22/01:00am 21.8 S 10 13 1011.5 - - - - - - - - -
22/12:30am 21.8 SSW 5 6 1012.0 - - - - - - - - -
22/12:00am 21.7 SSW 4 6 1012.3 - - - - - - - - -
 
Date/Time
EST
Temp
°C
Wind Pressure Rain since
9am
mm
Weather Cloud Vis
km
Sea
Height
m
Swell
Dir  Spd
kts
Gust
kts
hPa Trend Height
m
Period
s
Dir
21/11:30pm 21.8 SSW 4 5 1012.5 - - - - - - - - -
21/11:00pm 21.6 SSW 4 5 1012.8 - - - - - - - - -
21/10:30pm 21.8 SW 4 5 1013.0 - - - - - - - - -
21/10:00pm 21.6 WSW 4 5 1013.1 - - - - - - - - -
21/09:30pm 21.5 WSW 5 6 1013.2 - - - - - - - - -
21/09:00pm 21.6 SW 4 5 1013.0 - - - - - - - - -
21/08:30pm 21.5 WSW 4 6 1013.0 - - - - - - - - -
21/08:00pm 21.3 WSW 3 4 1012.9 - - - - - - - - -
21/07:30pm 21.5 W 3 5 1012.8 - - - - - - - - -
21/07:00pm 21.4 W 1 4 1012.4 - - - - - - - - -
21/06:30pm 21.8 WSW 4 5 1012.8 - - - - - - - - -
21/06:00pm 21.7 W 3 5 1012.1 - - - - - - - - -
21/05:30pm 21.7 W 3 4 1012.2 - - - - - - - - -
21/05:00pm 21.3 W 3 4 1011.8 - - - - - - - - -
21/04:30pm 21.2 W 4 6 1012.1 - - - - - - - - -
21/04:00pm 21.2 W 5 - 1012.2 - - - - - - - - -
21/03:00pm 21.8 NE 7 8 1011.1 - - - - - - - - -
21/02:30pm 21.4 NE 6 7 1011.7 - - - - - - - - -
21/02:00pm 21.3 N 4 6 1012.6 - - - - - - - - -
21/01:30pm 20.3 W 10 13 1013.1 - - - - - - - - -
21/01:00pm 23.0 CALM 0 0 1013.6 - - - - - - - - -
21/12:30pm 23.4 CALM 0 0 1013.6 - - - - - - - - -
21/12:00pm 24.9 CALM 0 0 1013.9 - - - - - - - - -
21/11:30am 24.7 NNE 2 3 1014.2 - - - - - - - - -
21/11:00am 25.0 NE 2 3 1014.5 - - - - - - - - -
21/10:30am 26.2 NE 1 3 1014.8 - - - - - - - - -
21/10:00am 25.7 NW 3 6 1015.0 - - - - - - - - -
21/09:30am 25.0 WNW 3 4 1015.2 - - - - - - - - -
21/09:00am 25.7 CALM 0 3 1015.4 - - - - - - - - -
21/08:30am 24.7 CALM 0 0 1015.2 - - - - - - - - -
21/08:00am 24.4 CALM 0 0 1015.3 - - - - - - - - -
21/07:30am 23.5 ENE 4 6 1015.0 - - - - - - - - -
21/07:00am 23.4 ENE 6 7 1014.7 - - - - - - - - -
21/06:30am 23.2 ENE 5 6 1014.9 - - - - - - - - -
21/06:00am 23.3 ENE 5 6 1014.7 - - - - - - - - -
21/05:30am 22.7 NE 6 8 1014.5 - - - - - - - - -
21/05:00am 22.7 ENE 7 8 1014.5 - - - - - - - - -
21/04:30am 22.7 ENE 6 7 1014.3 - - - - - - - - -
21/04:00am 22.6 E 6 7 1014.4 - - - - - - - - -
21/03:30am 22.7 ENE 7 8 1014.3 - - - - - - - - -
21/03:00am 22.8 ENE 7 9 1014.2 - - - - - - - - -
21/02:30am 22.6 ENE 7 9 1014.5 - - - - - - - - -
21/02:00am 22.8 ENE 7 9 1014.8 - - - - - - - - -
21/01:30am 23.1 E 9 11 1015.0 - - - - - - - - -
21/01:00am 22.9 E 8 9 1015.5 - - - - - - - - -
21/12:30am 23.1 E 7 8 1015.7 - - - - - - - - -
21/12:00am 23.0 ENE 7 8 1016.2 - - - - - - - - -
 
Date/Time
EST
Temp
°C
Wind Pressure Rain since
9am
mm
Weather Cloud Vis
km
Sea
Height
m
Swell
Dir  Spd
kts
Gust
kts
hPa Trend Height
m
Period
s
Dir
20/11:30pm 23.0 ENE 8 9 1016.4 - - - - - - - - -
20/11:00pm 23.1 E 8 9 1016.6 - - - - - - - - -
20/10:30pm 23.1 ENE 8 9 1016.9 - - - - - - - - -
20/10:00pm 23.3 ENE 9 11 1016.9 - - - - - - - - -
20/09:30pm 23.2 E 10 11 1016.9 - - - - - - - - -
20/09:00pm 23.2 E 10 11 1017.0 - - - - - - - - -
20/08:30pm 23.2 E 9 11 1017.1 - - - - - - - - -
20/08:00pm 23.1 E 10 11 1016.9 - - - - - - - - -
20/07:30pm 23.1 E 12 13 1016.8 - - - - - - - - -
20/07:00pm 23.2 E 13 15 1016.7 - - - - - - - - -
20/06:30pm 22.9 E 15 17 1016.6 - - - - - - - - -
20/06:00pm 23.1 E 15 16 1016.7 - - - - - - - - -
20/05:30pm 23.3 E 12 14 1016.8 - - - - - - - - -
20/05:00pm 23.7 E 8 9 1016.6 - - - - - - - - -
20/04:30pm 23.8 E 8 9 1016.7 - - - - - - - - -
20/04:00pm 23.7 E 10 11 1016.8 - - - - - - - - -
20/03:30pm 23.8 ESE 9 11 1016.9 - - - - - - - - -
20/03:00pm 23.8 ESE 10 12 1016.9 - - - - - - - - -
20/02:30pm 23.8 E 11 13 1017.2 - - - - - - - - -
20/02:00pm 23.7 ESE 12 14 1017.6 - - - - - - - - -
20/01:30pm 24.1 ESE 11 15 1017.9 - - - - - - - - -
20/01:00pm 24.0 ESE 10 12 1018.4 - - - - - - - - -
20/12:30pm 24.1 ESE 10 11 1018.8 - - - - - - - - -
20/12:00pm 24.1 ESE 11 13 1019.2 - - - - - - - - -
20/11:30am 23.9 ESE 12 13 1019.5 - - - - - - - - -
20/11:00am 23.7 ESE 14 16 1019.7 - - - - - - - - -
20/10:30am 23.6 ESE 14 17 1019.9 - - - - - - - - -
20/10:00am 24.4 ESE 13 15 1020.1 - - - - - - - - -
20/09:30am 23.9 ESE 16 18 1020.0 - - - - - - - - -
20/09:00am 24.2 ESE 14 16 1019.9 - - - - - - - - -
20/08:30am 23.9 ESE 15 17 1019.9 - - - - - - - - -
20/08:00am 23.7 ESE 15 18 1019.8 - - - - - - - - -
20/07:30am 24.1 ESE 14 16 1019.6 - - - - - - - - -
20/07:00am 23.5 E 16 18 1019.3 - - - - - - - - -
20/06:30am 23.4 E 15 18 1019.3 - - - - - - - - -
20/06:00am 23.2 ESE 16 19 1019.3 - - - - - - - - -
20/05:30am 22.4 ESE 18 21 1018.9 - - - - - - - - -
20/05:00am 23.1 ESE 17 19 1018.4 - - - - - - - - -
20/04:30am 22.6 ESE 14 17 1018.2 - - - - - - - - -
20/04:00am 22.7 E 18 20 1018.0 - - - - - - - - -
20/03:30am 22.7 E 17 20 1017.9 - - - - - - - - -
20/03:00am 21.9 ESE 17 23 1018.3 - - - - - - - - -
20/02:30am 23.0 ESE 15 18 1018.5 - - - - - - - - -
20/02:00am 22.9 ESE 18 21 1018.6 - - - - - - - - -
20/01:30am 23.0 ESE 19 21 1018.9 - - - - - - - - -
20/01:00am 22.9 ESE 18 20 1019.3 - - - - - - - - -
20/12:30am 23.1 ESE 19 23 1019.6 - - - - - - - - -
20/12:00am 23.3 ESE 17 20 1020.1 - - - - - - - - -
 
Date/Time
EST
Temp
°C
Wind Pressure Rain since
9am
mm
Weather Cloud Vis
km
Sea
Height
m
Swell
Dir  Spd
kts
Gust
kts
hPa Trend Height
m
Period
s
Dir
19/11:30pm 23.3 ESE 19 21 1020.6 - - - - - - - - -
19/11:00pm 23.3 ESE 20 23 1021.2 - - - - - - - - -
19/10:30pm 23.3 ESE 19 23 1021.5 - - - - - - - - -
19/10:00pm 22.8 SE 20 24 1021.5 - - - - - - - - -
19/09:30pm 23.2 ESE 20 25 1021.3 - - - - - - - - -
19/09:00pm 23.4 ESE 20 24 1021.4 - - - - - - - - -
19/08:30pm 23.4 ESE 20 23 1021.1 - - - - - - - - -
19/08:00pm 23.5 ESE 21 23 1020.8 - - - - - - - - -
19/07:30pm 23.3 ESE 22 26 1020.5 - - - - - - - - -
19/07:00pm 23.5 ESE 21 24 1020.7 - - - - - - - - -
19/06:30pm 23.4 ESE 20 23 1020.7 - - - - - - - - -
19/06:00pm 23.2 ESE 20 25 1020.4 - - - - - - - - -
19/05:30pm 23.3 ESE 19 23 1020.2 - - - - - - - - -
19/05:00pm 23.1 ESE 19 25 1020.0 - - - - - - - - -
19/04:30pm 23.1 ESE 19 23 1019.7 - - - - - - - - -
19/04:00pm 23.4 E 20 24 1019.5 - - - - - - - - -
19/03:30pm 23.1 ESE 17 23 1019.3 - - - - - - - - -
19/03:00pm 23.5 E 19 23 1019.4 - - - - - - - - -
19/02:30pm 23.6 ESE 23 26 1019.4 - - - - - - - - -
19/02:00pm 23.7 ESE 22 26 1019.7 - - - - - - - - -
19/01:30pm 23.6 ESE 24 27 1019.8 - - - - - - - - -

Other Formats:

Comma delimited format used in spreadsheet applications
http://www.bom.gov.au/fwo/IDQ60701/IDQ60701.94378.axf

JavaScript Object Notation format (JSON) in row-major order
http://www.bom.gov.au/fwo/IDQ60701/IDQ60701.94378.json